Time;durP1;ratioP1;P1;durP2;ratioP2;P2;SDS_P1;SDS_P2;PMS_P1;PMS_P2;Temp;Humidity;BMP_temperature;BMP_pressure;BME280_temperature;BME280_humidity;BME280_pressure;Samples;Min_cycle;Max_cycle;Signal;HPM_P1;HPM_P2
2023/02/07 00:01:27;;;;;;;25.40;13.80;;;;;;;-5.16;95.57;103761.75;5073374;28;20901;-68
2023/02/07 00:03:55;;;;;;;25.90;11.43;;;;;;;-5.24;95.81;103764.16;5073509;28;20970;-69
2023/02/07 00:06:24;;;;;;;41.53;15.10;;;;;;;-5.43;97.01;103756.78;5073831;28;20438;-69
2023/02/07 00:08:53;;;;;;;31.73;12.23;;;;;;;-5.38;97.42;103765.22;5073495;28;20434;-68
2023/02/07 00:11:22;;;;;;;23.50;12.60;;;;;;;-5.32;97.46;103762.09;5073759;28;20222;-68
2023/02/07 00:13:51;;;;;;;20.80;9.67;;;;;;;-5.26;97.27;103763.44;5073696;28;20565;-68
2023/02/07 00:16:18;;;;;;;18.38;9.88;;;;;;;-5.39;95.61;103756.44;5073676;28;20520;-68
2023/02/07 00:18:44;;;;;;;36.20;11.67;;;;;;;-5.44;95.71;103761.25;5073613;28;20290;-69
2023/02/07 00:21:13;;;;;;;28.95;11.63;;;;;;;-5.56;96.05;103766.59;5073237;28;20940;-67
2023/02/07 00:23:40;;;;;;;18.17;10.53;;;;;;;-5.47;95.31;103758.81;5073504;28;20258;-69
2023/02/07 00:26:09;;;;;;;26.77;12.23;;;;;;;-5.35;94.43;103749.13;5073231;28;20954;-67
2023/02/07 00:28:36;;;;;;;21.73;10.32;;;;;;;-5.50;94.31;103747.66;5073529;28;20508;-68
2023/02/07 00:31:05;;;;;;;29.23;12.23;;;;;;;-5.57;94.60;103741.16;5073195;28;20707;-68
2023/02/07 00:33:32;;;;;;;21.25;10.77;;;;;;;-5.61;95.15;103753.75;5073379;28;20465;-67
2023/02/07 00:35:59;;;;;;;16.47;8.50;;;;;;;-5.81;95.44;103747.31;5073182;28;20214;-69
2023/02/07 00:38:25;;;;;;;25.92;10.95;;;;;;;-5.72;95.12;103753.69;5073329;28;20429;-68
2023/02/07 00:40:52;;;;;;;25.37;10.57;;;;;;;-5.64;94.80;103752.16;5073307;28;20223;-69
2023/02/07 00:43:20;;;;;;;33.87;11.60;;;;;;;-5.90;96.19;103751.47;5073618;28;20536;-69
2023/02/07 00:45:47;;;;;;;29.17;11.50;;;;;;;-5.95;95.95;103745.72;5073304;28;20934;-70
2023/02/07 00:48:13;;;;;;;21.83;9.80;;;;;;;-5.96;95.35;103744.06;5073341;28;20448;-69
2023/02/07 00:50:40;;;;;;;19.80;9.90;;;;;;;-5.98;95.26;103748.59;5072892;28;21002;-69
2023/02/07 00:53:07;;;;;;;22.02;11.07;;;;;;;-6.00;94.74;103739.97;5072833;28;21005;-69
2023/02/07 00:55:34;;;;;;;21.48;12.88;;;;;;;-5.95;94.96;103745.72;5076891;28;20203;-69
2023/02/07 00:58:00;;;;;;;22.50;10.27;;;;;;;-5.78;94.30;103755.00;5072870;28;20767;-69
2023/02/07 01:00:28;;;;;;;19.47;10.07;;;;;;;-5.87;94.85;103753.06;5072701;28;20887;-69
2023/02/07 01:02:55;;;;;;;27.05;11.07;;;;;;;-5.99;95.81;103757.47;5073001;28;20461;-69
2023/02/07 01:05:22;;;;;;;33.50;10.35;;;;;;;-5.98;94.79;103753.03;5073111;28;20225;-69
2023/02/07 01:07:48;;;;;;;33.72;12.70;;;;;;;-5.94;94.85;103750.03;5073118;28;20203;-69
2023/02/07 01:10:15;;;;;;;28.35;11.75;;;;;;;-6.03;94.58;103745.44;5072741;28;20203;-69
2023/02/07 01:12:41;;;;;;;20.60;10.52;;;;;;;-6.09;94.15;103753.81;5072674;28;20219;-69
2023/02/07 01:15:08;;;;;;;22.20;11.47;;;;;;;-6.13;93.83;103742.66;5073030;28;20207;-69
2023/02/07 01:17:36;;;;;;;22.97;11.67;;;;;;;-6.13;94.53;103749.72;5072966;28;20814;-68
2023/02/07 01:20:04;;;;;;;32.20;12.25;;;;;;;-6.12;94.58;103741.69;5072928;28;20453;-69
2023/02/07 01:22:30;;;;;;;24.40;10.87;;;;;;;-6.18;94.43;103734.25;5072793;28;20656;-70
2023/02/07 01:24:57;;;;;;;24.20;9.07;;;;;;;-6.26;94.59;103736.59;5072934;28;20867;-70
2023/02/07 01:27:24;;;;;;;26.50;9.63;;;;;;;-6.23;94.66;103733.75;5072861;28;20294;-68
2023/02/07 01:29:51;;;;;;;24.00;11.00;;;;;;;-6.36;93.99;103736.44;5072866;28;20532;-70
2023/02/07 01:32:17;;;;;;;19.10;11.00;;;;;;;-6.42;94.38;103730.72;5072743;28;20469;-70
2023/02/07 01:34:45;;;;;;;24.00;11.57;;;;;;;-6.38;94.05;103738.31;5072847;28;20534;-70
2023/02/07 01:37:12;;;;;;;32.00;10.85;;;;;;;-6.38;93.76;103738.31;5072461;28;20480;-70
2023/02/07 01:39:39;;;;;;;31.73;11.90;;;;;;;-6.42;94.11;103728.97;5072805;28;20236;-70
2023/02/07 01:42:05;;;;;;;24.53;11.73;;;;;;;-6.36;93.95;103735.59;5072342;28;20568;-70
2023/02/07 01:44:59;;;;;;;29.33;10.97;;;;;;;-6.39;95.63;103720.81;5072386;28;20817;-69
2023/02/07 01:47:26;;;;;;;22.95;11.77;;;;;;;-6.33;96.96;103719.53;5074709;28;20540;-70
2023/02/07 01:49:57;;;;;;;23.67;11.70;;;;;;;-6.27;96.46;103723.53;5076112;28;20744;-69
2023/02/07 01:52:28;;;;;;;26.03;12.97;;;;;;;-6.22;93.76;103726.66;5075915;28;20660;-69
2023/02/07 01:55:00;;;;;;;26.50;12.95;;;;;;;-6.27;94.34;103724.38;5076379;28;20426;-71
2023/02/07 01:57:27;;;;;;;43.15;12.45;;;;;;;-6.36;95.71;103720.59;5076328;28;20278;-70
2023/02/07 01:59:57;;;;;;;22.47;10.80;;;;;;;-6.45;94.92;103712.53;5076098;28;20298;-69
2023/02/07 02:02:25;;;;;;;25.27;11.55;;;;;;;-6.41;95.12;103714.00;5076046;28;20485;-70
2023/02/07 02:04:55;;;;;;;27.73;12.27;;;;;;;-6.44;94.15;103717.66;5076185;28;20235;-69
2023/02/07 02:07:23;;;;;;;28.93;10.87;;;;;;;-6.45;96.29;103716.00;5076152;28;20241;-70
2023/02/07 02:09:49;;;;;;;25.00;11.67;;;;;;;-6.37;96.49;103712.81;5076056;28;20494;-70
2023/02/07 02:12:26;;;;;;;20.27;9.70;;;;;;;-6.26;96.62;103714.66;5075956;28;20461;-70
2023/02/07 02:15:11;;;;;;;23.83;10.32;;;;;;;-6.20;96.28;103708.91;5076070;28;20855;-70
2023/02/07 02:17:50;;;;;;;27.23;13.52;;;;;;;-6.30;94.76;103708.75;5075913;28;20187;-70
2023/02/07 02:20:50;;;;;;;24.88;10.50;;;;;;;-6.30;94.23;103705.28;5075669;28;20280;-69
2023/02/07 02:23:25;;;;;;;20.77;9.70;;;;;;;-6.36;93.99;103704.78;5075694;28;20308;-70
2023/02/07 02:26:12;;;;;;;21.23;10.80;;;;;;;-6.41;93.29;103703.44;5075538;28;20209;-70
2023/02/07 02:29:14;;;;;;;26.52;10.80;;;;;;;-6.44;92.89;103701.84;5075778;28;20471;-70
2023/02/07 02:32:34;;;;;;;22.02;11.27;;;;;;;-6.53;93.24;103704.31;5070358;28;20650;-69
2023/02/07 02:35:09;;;;;;;18.88;8.77;;;;;;;-6.55;92.89;103704.44;5080049;28;20275;-71
2023/02/07 02:37:45;;;;;;;21.77;10.45;;;;;;;-6.67;93.56;103710.59;5075740;28;20581;-68
2023/02/07 02:40:17;;;;;;;23.95;9.73;;;;;;;-6.59;93.60;103702.97;5075312;28;20193;-68
2023/02/07 02:42:50;;;;;;;24.40;10.57;;;;;;;-6.70;94.24;103700.25;5075121;28;20310;-69
2023/02/07 02:45:24;;;;;;;22.77;10.75;;;;;;;-6.80;92.53;103700.06;5075241;28;20223;-69
2023/02/07 02:47:51;;;;;;;21.67;10.80;;;;;;;-6.57;92.56;103706.34;5075111;28;20195;-69
2023/02/07 02:50:26;;;;;;;33.10;11.50;;;;;;;-6.49;92.84;103706.63;5075288;28;20211;-69
2023/02/07 02:52:52;;;;;;;21.15;9.50;;;;;;;-6.61;94.15;103689.06;5074948;28;20599;-69
2023/02/07 02:55:30;;;;;;;27.85;12.35;;;;;;;-6.74;94.05;103688.25;5074904;28;20239;-69
2023/02/07 02:58:07;;;;;;;23.67;11.20;;;;;;;-6.83;92.33;103683.63;5075133;28;20282;-68
2023/02/07 03:00:57;;;;;;;23.83;12.25;;;;;;;-6.81;92.86;103673.84;5074814;28;20302;-69
2023/02/07 03:03:39;;;;;;;21.48;10.68;;;;;;;-6.69;93.66;103665.88;5092831;22;20264;-66
2023/02/07 03:06:17;;;;;;;26.05;11.55;;;;;;;-6.77;91.63;103664.75;5035276;28;20188;-66
2023/02/07 03:08:49;;;;;;;22.92;11.70;;;;;;;-6.86;92.34;103658.38;5034837;28;20234;-67
2023/02/07 03:11:17;;;;;;;20.55;9.93;;;;;;;-6.86;93.41;103661.00;5035020;28;20220;-66
2023/02/07 03:14:03;;;;;;;31.63;14.10;;;;;;;-6.87;93.86;103664.56;5034864;28;20303;-66
2023/02/07 03:16:35;;;;;;;22.77;11.38;;;;;;;-6.93;94.12;103652.69;5035012;28;20459;-68
2023/02/07 03:19:07;;;;;;;24.13;10.50;;;;;;;-6.90;93.47;103659.53;5034629;28;20185;-67
2023/02/07 03:21:38;;;;;;;25.25;14.18;;;;;;;-6.91;92.46;103666.56;5034685;28;20477;-66
2023/02/07 03:24:11;;;;;;;21.00;10.38;;;;;;;-6.75;91.79;103661.06;5034264;28;20228;-66
2023/02/07 03:26:39;;;;;;;20.17;10.95;;;;;;;-6.65;91.55;103663.88;5034436;28;20280;-66
2023/02/07 03:29:07;;;;;;;23.63;12.73;;;;;;;-6.80;92.78;103657.91;5034651;28;20204;-66
2023/02/07 03:31:36;;;;;;;25.30;11.60;;;;;;;-6.94;94.21;103666.81;5034268;28;20650;-66
2023/02/07 03:34:08;;;;;;;41.33;12.40;;;;;;;-6.91;93.83;103665.72;5034383;28;20550;-66
2023/02/07 03:36:43;;;;;;;27.57;11.40;;;;;;;-6.90;92.15;103668.28;5034221;28;20661;-67
2023/02/07 03:39:10;;;;;;;29.83;10.80;;;;;;;-6.78;91.77;103670.97;5034606;28;20514;-66
2023/02/07 03:41:42;;;;;;;27.02;12.38;;;;;;;-6.80;89.86;103662.34;5034083;28;20292;-66
2023/02/07 03:44:11;;;;;;;21.38;10.30;;;;;;;-6.94;91.09;103656.28;5034483;28;20224;-66
2023/02/07 03:46:38;;;;;;;39.83;14.80;;;;;;;-7.04;91.75;103670.19;5034065;28;20295;-67
2023/02/07 03:49:06;;;;;;;20.55;11.05;;;;;;;-7.16;92.07;103664.00;5034258;28;20295;-66
2023/02/07 03:51:33;;;;;;;25.02;11.30;;;;;;;-7.05;91.21;103665.88;5034244;28;20216;-67
2023/02/07 03:54:01;;;;;;;24.23;12.00;;;;;;;-7.09;92.30;103651.25;5034206;28;20274;-66
2023/02/07 03:56:27;;;;;;;26.30;11.88;;;;;;;-7.04;92.62;103664.91;5034236;28;20232;-66
2023/02/07 03:58:54;;;;;;;24.55;10.50;;;;;;;-7.14;91.88;103670.00;5033800;28;20688;-66
2023/02/07 04:01:20;;;;;;;22.25;10.77;;;;;;;-7.01;91.47;103668.19;5034036;28;20236;-67
2023/02/07 04:03:47;;;;;;;32.08;11.95;;;;;;;-7.07;91.19;103657.25;5033451;28;20763;-66
2023/02/07 04:06:14;;;;;;;20.85;10.02;;;;;;;-7.10;90.88;103663.56;5033619;28;20204;-66
2023/02/07 04:08:40;;;;;;;24.63;11.77;;;;;;;-7.29;89.88;103665.81;5033620;28;20246;-67
2023/02/07 04:11:10;;;;;;;22.27;10.80;;;;;;;-7.36;91.48;103660.97;5033490;28;20250;-65
2023/02/07 04:13:36;;;;;;;24.92;11.68;;;;;;;-7.31;92.04;103668.53;5033884;28;20590;-66
2023/02/07 04:16:04;;;;;;;36.25;11.02;;;;;;;-7.29;91.82;103676.34;5034013;28;20299;-66
2023/02/07 04:18:31;;;;;;;18.35;10.13;;;;;;;-7.19;90.70;103672.97;5033721;28;20239;-67
2023/02/07 04:21:02;;;;;;;23.83;12.75;;;;;;;-7.30;91.31;103669.38;5033560;28;20220;-66
2023/02/07 04:23:28;;;;;;;25.00;12.38;;;;;;;-7.36;93.62;103671.50;5033504;28;20228;-67
2023/02/07 04:25:55;;;;;;;27.65;11.43;;;;;;;-7.29;94.30;103671.94;5033601;28;20254;-68
2023/02/07 04:28:23;;;;;;;27.02;12.57;;;;;;;-7.38;93.35;103673.41;5033275;28;20204;-67
2023/02/07 04:30:50;;;;;;;22.50;12.00;;;;;;;-7.44;92.84;103667.72;5033486;28;20287;-66
2023/02/07 04:33:16;;;;;;;26.38;11.15;;;;;;;-7.42;92.87;103664.03;5033444;28;20196;-66
2023/02/07 04:35:43;;;;;;;26.50;11.43;;;;;;;-7.48;93.02;103668.84;5033484;28;20693;-67
2023/02/07 04:38:10;;;;;;;24.08;10.88;;;;;;;-7.44;93.03;103667.72;5033460;28;20560;-66
2023/02/07 04:40:38;;;;;;;22.42;9.68;;;;;;;-7.33;94.79;103670.44;5033436;28;20239;-67
2023/02/07 04:43:05;;;;;;;28.20;9.75;;;;;;;-7.16;94.27;103666.66;5033193;28;20230;-66
2023/02/07 04:45:33;;;;;;;20.95;9.63;;;;;;;-7.17;94.07;103664.94;5033341;28;20378;-67
2023/02/07 04:48:00;;;;;;;23.70;10.77;;;;;;;-7.15;94.20;103674.44;5033386;28;20232;-66
2023/02/07 04:50:26;;;;;;;21.83;11.70;;;;;;;-7.03;93.75;103675.38;5033256;28;20295;-66
2023/02/07 04:52:53;;;;;;;25.33;11.75;;;;;;;-7.12;92.60;103676.03;5033273;28;20667;-66
2023/02/07 04:55:21;;;;;;;25.40;10.68;;;;;;;-7.23;91.91;103678.53;5033138;28;20220;-68
2023/02/07 04:57:48;;;;;;;28.33;9.90;;;;;;;-7.21;91.34;103680.13;5033012;28;20371;-66
2023/02/07 05:00:16;;;;;;;16.75;11.10;;;;;;;-7.02;90.46;103694.66;5033193;28;20295;-66
2023/02/07 05:02:44;;;;;;;27.23;11.70;;;;;;;-6.99;88.42;103692.63;5033114;28;20262;-66
2023/02/07 05:05:11;;;;;;;23.30;11.03;;;;;;;-7.23;88.83;103686.44;5032633;28;20640;-66
2023/02/07 05:07:37;;;;;;;24.83;10.07;;;;;;;-7.27;90.77;103687.59;5032619;28;20513;-67
2023/02/07 05:10:05;;;;;;;31.75;10.63;;;;;;;-7.21;91.04;103685.41;5033118;28;20231;-66
2023/02/07 05:12:31;;;;;;;21.98;10.40;;;;;;;-7.26;89.13;103681.38;5032868;28;20239;-66
2023/02/07 05:14:58;;;;;;;30.10;12.15;;;;;;;-7.30;91.43;103675.50;5032997;28;20235;-66
2023/02/07 05:17:24;;;;;;;28.35;10.50;;;;;;;-7.22;90.97;103677.59;5033043;28;20208;-66
2023/02/07 05:19:52;;;;;;;33.50;10.43;;;;;;;-7.29;90.36;103671.09;5033005;28;20201;-65
2023/02/07 05:22:19;;;;;;;26.55;10.07;;;;;;;-7.25;88.98;103672.56;5034500;28;20319;-67
2023/02/07 05:24:45;;;;;;;25.48;9.88;;;;;;;-7.29;87.70;103671.94;5036931;28;20639;-66
2023/02/07 05:27:12;;;;;;;18.30;10.80;;;;;;;-7.45;89.81;103674.75;5036928;28;20300;-66
2023/02/07 05:29:39;;;;;;;20.85;10.38;;;;;;;-7.49;91.59;103670.66;5036611;28;20341;-66
2023/02/07 05:34:49;;;;;;;29.00;12.05;;;;;;;-7.57;91.60;103686.13;5036559;28;20239;-65
2023/02/07 05:37:17;;;;;;;24.10;9.70;;;;;;;-7.54;93.23;103699.09;5036748;28;20300;-65
2023/02/07 05:39:44;;;;;;;20.42;10.80;;;;;;;-7.52;92.80;103697.22;5036716;28;20304;-66
2023/02/07 05:42:11;;;;;;;24.10;10.77;;;;;;;-7.50;92.89;103695.31;5036335;28;20208;-66
2023/02/07 05:44:37;;;;;;;18.70;10.10;;;;;;;-7.58;93.11;103699.41;5036195;28;20727;-66
2023/02/07 05:47:04;;;;;;;25.33;10.68;;;;;;;-7.56;93.13;103698.34;5036423;28;20205;-66
2023/02/07 05:49:31;;;;;;;22.88;11.23;;;;;;;-7.54;92.46;103706.13;5036561;28;20290;-66
2023/02/07 05:51:57;;;;;;;25.55;11.50;;;;;;;-7.59;93.62;103709.09;5036526;28;20232;-67
2023/02/07 05:54:25;;;;;;;28.33;11.00;;;;;;;-7.55;91.97;103704.47;5036380;28;20252;-68
2023/02/07 05:56:52;;;;;;;28.38;12.15;;;;;;;-7.48;90.99;103703.06;5036420;28;20197;-69
2023/02/07 05:59:19;;;;;;;24.45;12.45;;;;;;;-7.36;90.91;103712.78;5036404;28;20283;-68
2023/02/07 06:01:45;;;;;;;27.85;11.25;;;;;;;-7.16;90.02;103708.78;5036023;28;20205;-67
2023/02/07 06:04:12;;;;;;;21.20;11.57;;;;;;;-7.11;89.84;103717.19;5035765;28;20320;-69
2023/02/07 06:06:39;;;;;;;25.17;11.50;;;;;;;-7.32;89.02;103713.41;5036415;28;20205;-65
2023/02/07 06:09:05;;;;;;;28.38;12.93;;;;;;;-7.37;89.84;103716.38;5036019;28;20299;-64
2023/02/07 06:11:33;;;;;;;22.70;11.40;;;;;;;-7.50;91.11;103718.97;5036182;28;20255;-66
2023/02/07 06:14:00;;;;;;;28.92;11.82;;;;;;;-7.65;90.33;103726.13;5035852;28;20710;-66
2023/02/07 06:16:27;;;;;;;32.33;12.43;;;;;;;-7.66;90.47;103731.47;5035958;28;20299;-65
2023/02/07 06:18:53;;;;;;;32.47;15.07;;;;;;;-7.65;90.49;103717.41;5035797;28;20200;-65
2023/02/07 06:21:20;;;;;;;30.70;16.52;;;;;;;-7.55;91.65;103723.72;5035475;28;20360;-66
2023/02/07 06:23:48;;;;;;;32.58;13.77;;;;;;;-7.39;91.68;103726.16;5035226;28;20264;-66
2023/02/07 06:26:14;;;;;;;22.33;12.50;;;;;;;-7.40;92.03;103727.94;5035704;28;20310;-65
2023/02/07 06:28:42;;;;;;;19.65;10.55;;;;;;;-7.49;92.70;103736.47;5035643;28;20242;-66
2023/02/07 06:31:09;;;;;;;26.13;12.75;;;;;;;-7.52;92.74;103731.41;5035209;28;20231;-73
2023/02/07 06:33:36;;;;;;;29.08;12.30;;;;;;;-7.52;91.98;103746.38;5034638;28;20753;-67
2023/02/07 06:36:03;;;;;;;25.58;11.23;;;;;;;-7.52;90.28;103746.38;5035201;28;20200;-66
2023/02/07 06:38:29;;;;;;;23.75;12.20;;;;;;;-7.58;90.55;103738.88;5035046;28;20297;-66
2023/02/07 06:40:56;;;;;;;25.35;12.25;;;;;;;-7.66;90.24;103747.28;5035491;28;20219;-65
2023/02/07 06:43:22;;;;;;;23.83;8.90;;;;;;;-7.72;90.55;103739.78;5035328;28;20319;-65
2023/02/07 06:45:50;;;;;;;27.77;11.73;;;;;;;-7.80;90.84;103742.94;5035497;28;20582;-65
2023/02/07 06:48:17;;;;;;;23.27;10.90;;;;;;;-7.79;90.17;103738.50;5035433;28;20287;-65
2023/02/07 06:50:44;;;;;;;24.73;13.32;;;;;;;-7.80;89.62;103732.41;5035119;28;20266;-65
2023/02/07 06:53:10;;;;;;;39.35;12.90;;;;;;;-7.76;90.22;103735.69;5035317;28;20291;-65
2023/02/07 06:55:39;;;;;;;20.45;10.55;;;;;;;-7.80;90.26;103731.56;5035265;28;20244;-65
2023/02/07 06:58:06;;;;;;;26.88;11.63;;;;;;;-7.77;90.17;103728.75;5035256;28;20556;-65
2023/02/07 07:00:33;;;;;;;19.48;10.65;;;;;;;-7.71;90.44;103730.94;5034926;28;20205;-66
2023/02/07 07:03:01;;;;;;;23.92;11.63;;;;;;;-7.68;89.79;103722.88;5035172;28;20228;-65
2023/02/07 07:05:29;;;;;;;24.52;11.65;;;;;;;-7.73;90.77;103724.97;5034607;28;20299;-66
2023/02/07 07:07:56;;;;;;;25.42;10.75;;;;;;;-7.62;90.99;103728.53;5035268;28;20205;-65
2023/02/07 07:10:23;;;;;;;24.63;11.88;;;;;;;-7.54;90.74;103720.13;5034752;28;20664;-66
2023/02/07 07:12:49;;;;;;;26.15;12.20;;;;;;;-7.52;90.85;103718.25;5034678;28;20238;-66
2023/02/07 07:15:16;;;;;;;32.45;12.57;;;;;;;-7.59;90.79;103716.97;5034609;28;20263;-65
2023/02/07 07:17:43;;;;;;;20.75;11.18;;;;;;;-7.54;91.36;103714.88;5034910;28;20295;-65
2023/02/07 07:20:11;;;;;;;27.58;13.23;;;;;;;-7.42;91.95;103718.47;5034868;28;20295;-65
2023/02/07 07:22:38;;;;;;;25.33;11.98;;;;;;;-7.42;91.97;103719.31;5034687;28;20208;-66
2023/02/07 07:25:05;;;;;;;27.77;12.90;;;;;;;-7.40;92.58;103722.66;5034327;28;20667;-65
2023/02/07 07:27:32;;;;;;;33.30;13.65;;;;;;;-7.26;92.04;103721.75;5034423;28;20292;-66
2023/02/07 07:29:58;;;;;;;21.80;11.60;;;;;;;-7.25;92.23;103726.06;5034349;28;20579;-65
2023/02/07 07:32:26;;;;;;;26.65;10.40;;;;;;;-7.06;92.53;103715.09;5034617;28;20478;-66
2023/02/07 07:34:53;;;;;;;25.60;13.32;;;;;;;-7.01;91.14;103712.13;5034471;28;20594;-65
2023/02/07 07:37:21;;;;;;;30.48;13.02;;;;;;;-7.03;91.59;103722.78;5034230;28;20674;-67
2023/02/07 07:39:47;;;;;;;24.95;13.07;;;;;;;-6.88;92.81;103710.31;5034178;28;20295;-65
2023/02/07 07:42:14;;;;;;;27.38;12.80;;;;;;;-6.83;94.34;103723.16;5034145;28;20204;-65
2023/02/07 07:44:40;;;;;;;23.23;13.50;;;;;;;-6.69;95.39;103723.00;5033394;28;20324;-66
2023/02/07 07:47:07;;;;;;;31.17;14.93;;;;;;;-6.53;92.62;103718.34;5034374;28;20211;-65
2023/02/07 07:49:34;;;;;;;35.47;14.15;;;;;;;-6.52;93.23;103720.00;5034270;28;20232;-66
2023/02/07 07:52:00;;;;;;;33.67;14.25;;;;;;;-6.48;95.05;103712.72;5034036;28;20258;-65
2023/02/07 07:54:29;;;;;;;33.83;13.90;;;;;;;-6.48;95.05;103715.38;5034116;28;20307;-66
2023/02/07 07:56:55;;;;;;;37.60;13.10;;;;;;;-6.31;94.55;103719.44;5033892;28;20669;-65
2023/02/07 07:59:22;;;;;;;28.08;15.00;;;;;;;-6.33;95.16;103716.03;5034126;28;20201;-65
2023/02/07 08:01:48;;;;;;;31.03;15.37;;;;;;;-6.20;96.68;103719.47;5033733;28;20768;-65
2023/02/07 08:04:15;;;;;;;49.95;16.20;;;;;;;-6.10;98.03;103716.06;5033647;28;20577;-65
2023/02/07 08:06:42;;;;;;;42.08;16.20;;;;;;;-6.02;98.59;103712.84;5034090;28;20209;-65
2023/02/07 08:09:08;;;;;;;32.20;17.25;;;;;;;-5.84;98.43;103718.53;5033994;28;20635;-65
2023/02/07 08:11:36;;;;;;;33.07;17.07;;;;;;;-5.75;99.04;103727.56;5033959;28;20239;-67
2023/02/07 08:14:03;;;;;;;36.55;17.40;;;;;;;-5.53;97.87;103737.31;5033798;28;20512;-66
2023/02/07 08:16:30;;;;;;;36.27;15.97;;;;;;;-5.43;96.59;103731.22;5033799;28;20258;-65
2023/02/07 08:18:56;;;;;;;39.00;14.70;;;;;;;-5.32;96.67;103728.59;5033765;28;20443;-65
2023/02/07 08:21:25;;;;;;;34.80;14.60;;;;;;;-5.23;96.63;103734.13;5033743;28;20295;-66
2023/02/07 08:23:52;;;;;;;34.30;14.40;;;;;;;-5.14;97.00;103721.03;5033777;28;20486;-65
2023/02/07 08:26:18;;;;;;;31.83;15.70;;;;;;;-5.09;97.77;103724.19;5033339;28;21012;-67
2023/02/07 08:28:47;;;;;;;45.13;17.37;;;;;;;-4.88;98.30;103726.09;5033770;28;20538;-65
2023/02/07 08:31:14;;;;;;;35.53;15.73;;;;;;;-4.74;98.81;103717.91;5033591;28;20813;-65
2023/02/07 08:33:40;;;;;;;29.10;15.93;;;;;;;-4.51;98.69;103720.53;5033517;28;20550;-66
2023/02/07 08:36:09;;;;;;;39.37;17.73;;;;;;;-4.48;100.00;103717.63;5033218;28;20530;-65
2023/02/07 08:38:36;;;;;;;33.70;16.08;;;;;;;-4.31;100.00;103723.22;5033504;28;20524;-65
2023/02/07 08:41:03;;;;;;;37.10;17.50;;;;;;;-4.14;100.00;103721.84;5033179;28;20224;-65
2023/02/07 08:43:30;;;;;;;29.15;14.23;;;;;;;-3.95;100.00;103721.16;5032960;28;20574;-66
2023/02/07 08:45:59;;;;;;;31.47;15.53;;;;;;;-3.85;100.00;103727.41;5033224;28;20287;-65
2023/02/07 08:48:26;;;;;;;33.10;13.60;;;;;;;-3.69;100.00;103715.53;5032938;28;20947;-64
2023/02/07 08:50:52;;;;;;;33.30;15.27;;;;;;;-3.59;100.00;103727.00;5033343;28;20481;-66
2023/02/07 08:53:19;;;;;;;34.73;13.77;;;;;;;-3.49;100.00;103727.09;5033058;28;20795;-67
2023/02/07 08:55:46;;;;;;;41.40;15.77;;;;;;;-3.39;100.00;103730.63;5032927;28;20534;-68
2023/02/07 08:58:13;;;;;;;33.20;14.98;;;;;;;-3.14;100.00;103729.38;5032058;28;20429;-67
2023/02/07 09:00:39;;;;;;;40.77;14.97;;;;;;;-2.96;100.00;103730.44;5032932;28;20767;-70
2023/02/07 09:03:07;;;;;;;27.43;13.70;;;;;;;-2.83;100.00;103730.22;5032875;28;20937;-68
2023/02/07 09:05:34;;;;;;;33.00;12.80;;;;;;;-2.70;100.00;103733.47;5033467;28;20432;-67
2023/02/07 09:08:01;;;;;;;23.40;12.13;;;;;;;-2.54;100.00;103727.63;5033432;28;20471;-67
2023/02/07 09:10:28;;;;;;;27.17;10.87;;;;;;;-2.37;100.00;103728.78;5032835;28;20538;-66
2023/02/07 09:12:55;;;;;;;24.03;10.77;;;;;;;-2.25;100.00;103716.25;5033098;28;20449;-67
2023/02/07 09:15:21;;;;;;;19.33;9.63;;;;;;;-2.14;100.00;103726.72;5032699;28;20550;-68
2023/02/07 09:17:48;;;;;;;23.67;11.33;;;;;;;-2.14;100.00;103726.72;5033052;28;20474;-67
2023/02/07 09:20:16;;;;;;;21.13;10.43;;;;;;;-2.02;100.00;103741.53;5033003;28;20497;-67
2023/02/07 09:25:27;;;;;;;20.17;10.10;;;;;;;-1.84;99.76;103747.84;5032798;28;21037;-67
2023/02/07 09:27:54;;;;;;;27.33;11.83;;;;;;;-1.69;99.64;103747.41;5032983;28;20451;-67
2023/02/07 09:30:21;;;;;;;29.00;11.50;;;;;;;-1.60;99.00;103746.56;5033003;28;20451;-68
2023/02/07 09:32:48;;;;;;;24.27;10.80;;;;;;;-1.48;98.35;103744.59;5032996;28;20529;-67
2023/02/07 09:35:16;;;;;;;20.90;10.20;;;;;;;-1.46;97.07;103740.81;5032855;28;20525;-66
2023/02/07 09:37:42;;;;;;;33.80;10.73;;;;;;;-1.37;97.14;103736.47;5032921;28;20458;-67
2023/02/07 09:40:17;;;;;;;21.87;10.03;;;;;;;-1.43;95.89;103732.53;5032851;28;20446;-67
2023/02/07 09:42:51;;;;;;;34.20;12.30;;;;;;;-1.33;95.75;103740.50;5032964;28;20434;-67
2023/02/07 09:45:20;;;;;;;21.20;10.20;;;;;;;-1.23;95.44;103748.47;5032733;28;20574;-66
2023/02/07 09:47:50;;;;;;;26.50;11.23;;;;;;;-1.25;93.98;103761.03;5032810;28;20525;-66
2023/02/07 09:50:22;;;;;;;26.03;10.20;;;;;;;-1.18;94.07;103751.53;5032567;28;20440;-66
2023/02/07 09:52:52;;;;;;;28.37;10.40;;;;;;;-1.10;94.03;103754.31;5032804;28;20515;-66
2023/02/07 09:55:23;;;;;;;21.67;10.10;;;;;;;-1.03;93.20;103755.38;5032670;28;20524;-68
2023/02/07 09:57:55;;;;;;;30.93;11.40;;;;;;;-0.94;93.62;103749.19;5032386;28;20960;-66
2023/02/07 10:00:26;;;;;;;21.60;10.17;;;;;;;-0.84;93.61;103744.69;5032773;28;20535;-67
2023/02/07 10:02:57;;;;;;;25.00;10.27;;;;;;;-0.73;93.17;103745.47;5032373;28;20777;-65
2023/02/07 10:05:33;;;;;;;27.13;11.13;;;;;;;-0.69;92.65;103754.84;5032182;28;20495;-67
2023/02/07 10:07:59;;;;;;;21.80;10.40;;;;;;;-0.65;92.67;103753.56;5033966;28;20465;-66
2023/02/07 10:10:34;;;;;;;19.60;9.67;;;;;;;-0.54;91.59;103766.66;5036370;28;20446;-65
2023/02/07 10:13:17;;;;;;;21.93;11.40;;;;;;;-0.42;91.99;103769.97;5035960;28;20526;-65
2023/02/07 10:15:56;;;;;;;18.80;10.10;;;;;;;-0.29;91.67;103773.09;5036221;28;20455;-65
2023/02/07 10:18:45;;;;;;;20.70;10.00;;;;;;;-0.18;90.02;103774.72;5036107;28;20853;-65
2023/02/07 10:21:24;;;;;;;25.90;11.00;;;;;;;-0.07;88.52;103780.66;5035883;28;20909;-66
2023/02/07 10:24:16;;;;;;;22.90;10.80;;;;;;;-0.01;87.88;103785.38;5035718;28;20937;-66
2023/02/07 10:26:51;;;;;;;23.37;10.10;;;;;;;0.03;87.16;103775.25;5035792;28;20432;-66
2023/02/07 10:29:32;;;;;;;26.60;10.70;;;;;;;0.03;86.64;103777.09;5035669;28;20909;-66
2023/02/07 10:32:02;;;;;;;21.80;10.07;;;;;;;0.01;86.72;103792.41;5035979;28;20427;-66
2023/02/07 10:34:34;;;;;;;18.70;9.20;;;;;;;0.06;85.88;103782.13;5035738;28;20465;-65
2023/02/07 10:37:15;;;;;;;17.57;9.83;;;;;;;0.03;86.36;103779.75;5035494;28;20454;-66
2023/02/07 10:39:45;;;;;;;30.80;12.40;;;;;;;0.06;86.21;103772.31;5035497;28;20486;-67
2023/02/07 10:42:15;;;;;;;34.83;12.17;;;;;;;0.23;85.54;103766.13;5035448;28;20989;-65
2023/02/07 10:44:41;;;;;;;26.50;10.87;;;;;;;0.34;85.16;103761.56;5035251;28;21011;-65
2023/02/07 10:47:15;;;;;;;27.63;10.47;;;;;;;0.43;84.34;103763.28;5035313;28;21020;-66
2023/02/07 10:49:44;;;;;;;22.37;10.30;;;;;;;0.58;84.75;103760.91;5035399;28;20462;-66
2023/02/07 10:52:26;;;;;;;21.37;10.13;;;;;;;0.75;81.92;103760.88;5035632;28;20538;-65
2023/02/07 10:54:54;;;;;;;18.87;9.37;;;;;;;0.89;81.79;103771.97;5035766;28;20463;-65
2023/02/07 10:57:21;;;;;;;28.93;10.33;;;;;;;1.01;80.79;103770.69;5035344;28;20475;-67
2023/02/07 10:59:49;;;;;;;27.77;9.90;;;;;;;1.10;78.69;103775.06;5034963;28;20431;-65
2023/02/07 11:02:38;;;;;;;26.90;11.10;;;;;;;1.21;77.08;103772.13;5035372;28;20486;-65
2023/02/07 11:05:25;;;;;;;23.33;10.00;;;;;;;1.26;76.89;103769.81;5034698;28;20497;-64
2023/02/07 11:07:58;;;;;;;25.87;10.40;;;;;;;1.38;75.91;103762.38;5035206;28;20450;-65
2023/02/07 11:10:30;;;;;;;18.97;9.90;;;;;;;1.51;76.17;103753.91;5035068;28;20521;-65
2023/02/07 11:12:59;;;;;;;21.70;10.03;;;;;;;1.62;75.11;103776.81;5035063;28;20489;-66
2023/02/07 11:15:34;;;;;;;24.50;10.30;;;;;;;1.74;75.03;103773.66;5033737;28;20929;-67
2023/02/07 11:18:02;;;;;;;24.53;10.43;;;;;;;1.80;73.81;103761.47;5034602;28;20462;-65
2023/02/07 11:20:32;;;;;;;19.80;9.73;;;;;;;1.86;72.94;103770.66;5034843;28;20439;-64
2023/02/07 11:23:03;;;;;;;23.60;9.40;;;;;;;1.92;72.65;103762.03;5034909;28;20443;-65
2023/02/07 11:25:32;;;;;;;19.10;9.03;;;;;;;2.14;72.41;103764.03;5034966;28;20955;-65